Higdonville, North Carolina
Current Conditions -  °F | °C
As of 5:15 PM on Saturday 20 Dec 2014 (Local Time) from KRHP Reporting Station
Overcast Overcast  
Wind Chill: 44°   Ceiling: 1000
Heat Index: 44°   Visibility: 7mi
Dew Point: 43°   Wind: 0mph
Humidity: 96%   Direction: NA
Pressure: 30.16"   Gusts: NA
Location:  35.1737°N, 83.4215°W
Report Text: KRHP 202215Z AUTO 00000KT 7SM OVC010 07/06 A3016 RMK AO2 T00660060
Loading
Personal Weather Stations






























Interactive Weather Map New forecast layout! Learn more

10-Day Weather Forecast

Advertisements
Track Severe Weather on mobile